sensor_id;sensor_type;location;lat;lon;timestamp;pressure;altitude;pressure_sealevel;temperature;humidity
36748;BME280;22716;51.556;5.080;2023-11-21T00:00:11;100368.53;;;8.17;100.00
36748;BME280;22716;51.556;5.080;2023-11-21T00:02:41;100372.09;;;8.09;100.00
36748;BME280;22716;51.556;5.080;2023-11-21T00:05:10;100374.72;;;8.06;100.00
36748;BME280;22716;51.556;5.080;2023-11-21T00:07:40;100378.25;;;7.99;100.00
36748;BME280;22716;51.556;5.080;2023-11-21T00:10:09;100378.22;;;8.03;100.00
36748;BME280;22716;51.556;5.080;2023-11-21T00:12:42;100386.03;;;8.05;100.00
36748;BME280;22716;51.556;5.080;2023-11-21T00:15:14;100389.50;;;8.05;100.00
36748;BME280;22716;51.556;5.080;2023-11-21T00:17:42;100377.41;;;7.97;100.00
36748;BME280;22716;51.556;5.080;2023-11-21T00:20:12;100373.94;;;7.95;100.00
36748;BME280;22716;51.556;5.080;2023-11-21T00:22:41;100380.84;;;7.99;100.00
36748;BME280;22716;51.556;5.080;2023-11-21T00:25:10;100380.03;;;7.94;100.00
36748;BME280;22716;51.556;5.080;2023-11-21T00:27:43;100382.63;;;7.97;100.00
36748;BME280;22716;51.556;5.080;2023-11-21T00:30:13;100381.75;;;7.93;100.00
36748;BME280;22716;51.556;5.080;2023-11-21T00:32:42;100374.81;;;7.94;100.00
36748;BME280;22716;51.556;5.080;2023-11-21T00:35:11;100384.41;;;7.88;100.00
36748;BME280;22716;51.556;5.080;2023-11-21T00:37:39;100384.47;;;7.81;100.00
36748;BME280;22716;51.556;5.080;2023-11-21T00:40:09;100386.22;;;7.83;100.00
36748;BME280;22716;51.556;5.080;2023-11-21T00:42:43;100381.81;;;7.84;100.00
36748;BME280;22716;51.556;5.080;2023-11-21T00:47:04;100391.44;;;7.76;100.00
36748;BME280;22716;51.556;5.080;2023-11-21T00:49:33;100384.53;;;7.72;100.00
36748;BME280;22716;51.556;5.080;2023-11-21T00:52:02;100392.41;;;7.63;100.00
36748;BME280;22716;51.556;5.080;2023-11-21T00:54:31;100392.44;;;7.60;100.00
36748;BME280;22716;51.556;5.080;2023-11-21T00:56:59;100389.84;;;7.55;100.00
36748;BME280;22716;51.556;5.080;2023-11-21T00:59:29;100393.28;;;7.60;100.00
36748;BME280;22716;51.556;5.080;2023-11-21T01:01:57;100400.28;;;7.57;100.00
36748;BME280;22716;51.556;5.080;2023-11-21T01:04:30;100395.94;;;7.54;100.00
36748;BME280;22716;51.556;5.080;2023-11-21T01:06:59;100395.06;;;7.54;100.00
36748;BME280;22716;51.556;5.080;2023-11-21T01:09:27;100408.94;;;7.56;100.00
36748;BME280;22716;51.556;5.080;2023-11-21T01:11:56;100419.41;;;7.50;100.00
36748;BME280;22716;51.556;5.080;2023-11-21T01:14:25;100415.09;;;7.44;100.00
36748;BME280;22716;51.556;5.080;2023-11-21T01:16:54;100418.56;;;7.43;100.00
36748;BME280;22716;51.556;5.080;2023-11-21T01:19:23;100420.31;;;7.44;100.00
36748;BME280;22716;51.556;5.080;2023-11-21T01:21:54;100416.81;;;7.44;100.00
36748;BME280;22716;51.556;5.080;2023-11-21T01:24:23;100404.72;;;7.35;100.00
36748;BME280;22716;51.556;5.080;2023-11-21T01:26:52;100423.81;;;7.39;100.00
36748;BME280;22716;51.556;5.080;2023-11-21T01:29:20;100424.72;;;7.33;100.00
36748;BME280;22716;51.556;5.080;2023-11-21T01:31:49;100420.38;;;7.29;100.00
36748;BME280;22716;51.556;5.080;2023-11-21T01:34:17;100429.03;;;7.31;100.00
36748;BME280;22716;51.556;5.080;2023-11-21T01:36:46;100443.81;;;7.33;100.00
36748;BME280;22716;51.556;5.080;2023-11-21T01:39:18;100429.91;;;7.28;100.00
36748;BME280;22716;51.556;5.080;2023-11-21T01:41:49;100437.75;;;7.27;100.00
36748;BME280;22716;51.556;5.080;2023-11-21T01:44:18;100436.91;;;7.17;100.00
36748;BME280;22716;51.556;5.080;2023-11-21T01:46:47;100444.75;;;7.19;100.00
36748;BME280;22716;51.556;5.080;2023-11-21T01:49:16;100449.06;;;7.18;100.00
36748;BME280;22716;51.556;5.080;2023-11-21T01:51:47;100445.59;;;7.18;100.00
36748;BME280;22716;51.556;5.080;2023-11-21T01:54:20;100451.66;;;7.20;100.00
36748;BME280;22716;51.556;5.080;2023-11-21T01:56:49;100455.16;;;7.22;100.00
36748;BME280;22716;51.556;5.080;2023-11-21T01:59:20;100463.81;;;7.19;100.00
36748;BME280;22716;51.556;5.080;2023-11-21T02:01:49;100453.44;;;7.09;100.00
36748;BME280;22716;51.556;5.080;2023-11-21T02:04:19;100459.53;;;7.09;100.00
36748;BME280;22716;51.556;5.080;2023-11-21T02:06:48;100457.78;;;7.05;100.00
36748;BME280;22716;51.556;5.080;2023-11-21T02:09:22;100462.13;;;7.06;100.00
36748;BME280;22716;51.556;5.080;2023-11-21T02:11:51;100461.28;;;7.04;100.00
36748;BME280;22716;51.556;5.080;2023-11-21T02:14:19;100463.00;;;7.05;100.00
36748;BME280;22716;51.556;5.080;2023-11-21T02:16:50;100466.47;;;7.06;100.00
36748;BME280;22716;51.556;5.080;2023-11-21T02:19:20;100460.38;;;7.05;100.00
36748;BME280;22716;51.556;5.080;2023-11-21T02:21:51;100456.94;;;7.00;100.00
36748;BME280;22716;51.556;5.080;2023-11-21T02:24:23;100472.53;;;7.02;100.00
36748;BME280;22716;51.556;5.080;2023-11-21T02:26:52;100483.84;;;6.98;100.00
36748;BME280;22716;51.556;5.080;2023-11-21T02:29:21;100479.53;;;6.95;100.00
36748;BME280;22716;51.556;5.080;2023-11-21T02:31:54;100483.00;;;6.94;100.00
36748;BME280;22716;51.556;5.080;2023-11-21T02:34:23;100478.63;;;6.90;100.00
36748;BME280;22716;51.556;5.080;2023-11-21T02:36:52;100478.63;;;6.96;100.00
36748;BME280;22716;51.556;5.080;2023-11-21T02:39:23;100477.78;;;6.97;100.00
36748;BME280;22716;51.556;5.080;2023-11-21T02:41:52;100483.84;;;7.01;100.00
36748;BME280;22716;51.556;5.080;2023-11-21T02:44:20;100480.38;;;7.00;100.00
36748;BME280;22716;51.556;5.080;2023-11-21T02:46:49;100486.44;;;7.05;100.00
36748;BME280;22716;51.556;5.080;2023-11-21T02:49:17;100474.28;;;7.07;100.00
36748;BME280;22716;51.556;5.080;2023-11-21T02:51:46;100473.41;;;7.11;100.00
36748;BME280;22716;51.556;5.080;2023-11-21T02:54:14;100479.50;;;7.10;100.00
36748;BME280;22716;51.556;5.080;2023-11-21T02:56:46;100476.84;;;7.16;100.00
36748;BME280;22716;51.556;5.080;2023-11-21T02:59:15;100471.63;;;7.19;100.00
36748;BME280;22716;51.556;5.080;2023-11-21T03:01:45;100477.72;;;7.23;100.00
36748;BME280;22716;51.556;5.080;2023-11-21T03:04:15;100475.13;;;7.24;100.00
36748;BME280;22716;51.556;5.080;2023-11-21T03:06:45;100451.69;;;7.15;100.00
36748;BME280;22716;51.556;5.080;2023-11-21T03:09:13;100473.38;;;7.25;100.00
36748;BME280;22716;51.556;5.080;2023-11-21T03:11:42;100478.59;;;7.23;100.00
36748;BME280;22716;51.556;5.080;2023-11-21T03:14:13;100476.00;;;7.22;100.00
36748;BME280;22716;51.556;5.080;2023-11-21T03:16:42;100480.31;;;7.23;100.00
36748;BME280;22716;51.556;5.080;2023-11-21T03:19:10;100481.19;;;7.25;100.00
36748;BME280;22716;51.556;5.080;2023-11-21T03:21:40;100489.88;;;7.24;100.00
36748;BME280;22716;51.556;5.080;2023-11-21T03:24:09;100492.47;;;7.25;100.00
36748;BME280;22716;51.556;5.080;2023-11-21T03:26:38;100495.06;;;7.28;100.00
36748;BME280;22716;51.556;5.080;2023-11-21T03:29:07;100489.00;;;7.29;100.00
36748;BME280;22716;51.556;5.080;2023-11-21T03:31:38;100491.59;;;7.32;100.00
36748;BME280;22716;51.556;5.080;2023-11-21T03:34:06;100472.53;;;7.21;100.00
36748;BME280;22716;51.556;5.080;2023-11-21T03:36:35;100493.34;;;7.29;100.00
36748;BME280;22716;51.556;5.080;2023-11-21T03:39:03;100500.28;;;7.31;100.00
36748;BME280;22716;51.556;5.080;2023-11-21T03:41:32;100506.38;;;7.37;100.00
36748;BME280;22716;51.556;5.080;2023-11-21T03:44:01;100502.00;;;7.36;100.00
36748;BME280;22716;51.556;5.080;2023-11-21T03:46:30;100512.44;;;7.39;100.00
36748;BME280;22716;51.556;5.080;2023-11-21T03:49:02;100500.25;;;7.39;100.00
36748;BME280;22716;51.556;5.080;2023-11-21T03:51:30;100502.00;;;7.37;100.00
36748;BME280;22716;51.556;5.080;2023-11-21T03:53:59;100503.75;;;7.43;100.00
36748;BME280;22716;51.556;5.080;2023-11-21T03:56:28;100508.91;;;7.46;100.00
36748;BME280;22716;51.556;5.080;2023-11-21T03:58:56;100515.00;;;7.49;100.00
36748;BME280;22716;51.556;5.080;2023-11-21T04:01:25;100509.78;;;7.51;100.00
36748;BME280;22716;51.556;5.080;2023-11-21T04:03:53;100507.19;;;7.48;100.00
36748;BME280;22716;51.556;5.080;2023-11-21T04:06:25;100506.31;;;7.46;100.00
36748;BME280;22716;51.556;5.080;2023-11-21T04:08:54;100518.47;;;7.44;100.00
36748;BME280;22716;51.556;5.080;2023-11-21T04:11:22;100518.47;;;7.47;100.00
36748;BME280;22716;51.556;5.080;2023-11-21T04:13:51;100528.03;;;7.48;100.00
36748;BME280;22716;51.556;5.080;2023-11-21T04:16:19;100530.63;;;7.46;100.00
36748;BME280;22716;51.556;5.080;2023-11-21T04:18:48;100535.00;;;7.47;100.00
36748;BME280;22716;51.556;5.080;2023-11-21T04:21:16;100540.19;;;7.49;100.00
36748;BME280;22716;51.556;5.080;2023-11-21T04:23:48;100541.06;;;7.51;100.00
36748;BME280;22716;51.556;5.080;2023-11-21T04:26:16;100548.00;;;7.50;100.00
36748;BME280;22716;51.556;5.080;2023-11-21T04:28:45;100564.53;;;7.54;100.00
36748;BME280;22716;51.556;5.080;2023-11-21T04:31:13;100536.72;;;7.47;100.00
36748;BME280;22716;51.556;5.080;2023-11-21T04:33:42;100539.34;;;7.48;100.00
36748;BME280;22716;51.556;5.080;2023-11-21T04:36:10;100547.16;;;7.51;100.00
36748;BME280;22716;51.556;5.080;2023-11-21T04:38:39;100561.00;;;7.58;100.00
36748;BME280;22716;51.556;5.080;2023-11-21T04:41:10;100559.31;;;7.57;100.00
36748;BME280;22716;51.556;5.080;2023-11-21T04:43:39;100556.69;;;7.60;100.00
36748;BME280;22716;51.556;5.080;2023-11-21T04:46:08;100567.09;;;7.63;100.00
36748;BME280;22716;51.556;5.080;2023-11-21T04:48:37;100570.56;;;7.65;100.00
36748;BME280;22716;51.556;5.080;2023-11-21T04:51:06;100575.78;;;7.62;100.00
36748;BME280;22716;51.556;5.080;2023-11-21T04:53:34;100574.03;;;7.67;100.00
36748;BME280;22716;51.556;5.080;2023-11-21T04:56:04;100580.97;;;7.71;100.00
36748;BME280;22716;51.556;5.080;2023-11-21T04:58:35;100578.38;;;7.71;100.00
36748;BME280;22716;51.556;5.080;2023-11-21T05:01:07;100569.69;;;7.72;100.00
36748;BME280;22716;51.556;5.080;2023-11-21T05:03:35;100584.41;;;7.82;100.00
36748;BME280;22716;51.556;5.080;2023-11-21T05:06:04;100580.97;;;7.80;100.00
36748;BME280;22716;51.556;5.080;2023-11-21T05:08:35;100580.97;;;7.80;100.00
36748;BME280;22716;51.556;5.080;2023-11-21T05:11:03;100574.88;;;7.79;100.00
36748;BME280;22716;51.556;5.080;2023-11-21T05:13:36;100586.16;;;7.83;100.00
36748;BME280;22716;51.556;5.080;2023-11-21T05:16:06;100579.19;;;7.82;100.00
36748;BME280;22716;51.556;5.080;2023-11-21T05:18:34;100593.09;;;7.88;100.00
36748;BME280;22716;51.556;5.080;2023-11-21T05:21:03;100599.19;;;7.92;100.00
36748;BME280;22716;51.556;5.080;2023-11-21T05:23:32;100601.78;;;7.92;100.00
36748;BME280;22716;51.556;5.080;2023-11-21T05:26:01;100595.69;;;7.95;100.00
36748;BME280;22716;51.556;5.080;2023-11-21T05:28:30;100605.25;;;7.97;100.00
36748;BME280;22716;51.556;5.080;2023-11-21T05:31:01;100600.91;;;7.98;100.00
36748;BME280;22716;51.556;5.080;2023-11-21T05:33:30;100609.56;;;8.03;100.00
36748;BME280;22716;51.556;5.080;2023-11-21T05:35:58;100601.75;;;8.04;100.00
36748;BME280;22716;51.556;5.080;2023-11-21T05:38:27;100602.56;;;8.11;100.00
36748;BME280;22716;51.556;5.080;2023-11-21T05:40:56;100610.38;;;8.14;100.00
36748;BME280;22716;51.556;5.080;2023-11-21T05:43:24;100620.84;;;8.09;100.00
36748;BME280;22716;51.556;5.080;2023-11-21T05:45:53;100622.59;;;8.09;100.00
36748;BME280;22716;51.556;5.080;2023-11-21T05:48:25;100621.72;;;8.05;100.00
36748;BME280;22716;51.556;5.080;2023-11-21T05:50:54;100633.00;;;8.10;100.00
36748;BME280;22716;51.556;5.080;2023-11-21T05:53:22;100628.66;;;8.12;100.00
36748;BME280;22716;51.556;5.080;2023-11-21T05:55:51;100629.56;;;8.10;100.00
36748;BME280;22716;51.556;5.080;2023-11-21T05:58:19;100633.91;;;8.09;100.00
36748;BME280;22716;51.556;5.080;2023-11-21T06:00:48;100641.72;;;8.09;100.00
36748;BME280;22716;51.556;5.080;2023-11-21T06:03:17;100646.94;;;8.11;100.00
36748;BME280;22716;51.556;5.080;2023-11-21T06:05:48;100648.66;;;8.13;100.00
36748;BME280;22716;51.556;5.080;2023-11-21T06:08:16;100646.03;;;8.13;100.00
36748;BME280;22716;51.556;5.080;2023-11-21T06:10:45;100649.53;;;8.14;100.00
36748;BME280;22716;51.556;5.080;2023-11-21T06:13:14;100663.47;;;8.16;100.00
36748;BME280;22716;51.556;5.080;2023-11-21T06:15:46;100663.47;;;8.13;100.00
36748;BME280;22716;51.556;5.080;2023-11-21T06:18:15;100666.94;;;8.09;100.00
36748;BME280;22716;51.556;5.080;2023-11-21T06:20:45;100664.31;;;8.10;100.00
36748;BME280;22716;51.556;5.080;2023-11-21T06:23:16;100665.19;;;8.14;100.00
36748;BME280;22716;51.556;5.080;2023-11-21T06:25:44;100666.03;;;8.20;100.00
36748;BME280;22716;51.556;5.080;2023-11-21T06:28:13;100674.72;;;8.25;100.00
36748;BME280;22716;51.556;5.080;2023-11-21T06:30:43;100676.47;;;8.26;100.00
36748;BME280;22716;51.556;5.080;2023-11-21T06:33:12;100674.72;;;8.25;100.00
36748;BME280;22716;51.556;5.080;2023-11-21T06:35:42;100678.25;;;8.27;100.00
36748;BME280;22716;51.556;5.080;2023-11-21T06:38:10;100678.19;;;8.26;100.00
36748;BME280;22716;51.556;5.080;2023-11-21T06:40:41;100695.63;;;8.28;100.00
36748;BME280;22716;51.556;5.080;2023-11-21T06:43:11;100684.31;;;8.29;100.00
36748;BME280;22716;51.556;5.080;2023-11-21T06:45:40;100683.44;;;8.32;100.00
36748;BME280;22716;51.556;5.080;2023-11-21T06:48:09;100695.63;;;8.33;100.00
36748;BME280;22716;51.556;5.080;2023-11-21T06:50:38;100701.69;;;8.36;100.00
36748;BME280;22716;51.556;5.080;2023-11-21T06:53:07;100692.97;;;8.37;100.00
36748;BME280;22716;51.556;5.080;2023-11-21T06:55:36;100698.19;;;8.40;100.00
36748;BME280;22716;51.556;5.080;2023-11-21T06:58:07;100699.91;;;8.43;100.00
36748;BME280;22716;51.556;5.080;2023-11-21T07:00:35;100699.94;;;8.41;100.00
36748;BME280;22716;51.556;5.080;2023-11-21T07:03:04;100705.13;;;8.44;100.00
36748;BME280;22716;51.556;5.080;2023-11-21T07:05:32;100714.69;;;8.47;100.00
36748;BME280;22716;51.556;5.080;2023-11-21T07:08:01;100711.19;;;8.50;100.00
36748;BME280;22716;51.556;5.080;2023-11-21T07:10:30;100712.94;;;8.49;100.00
36748;BME280;22716;51.556;5.080;2023-11-21T07:12:58;100719.03;;;8.54;100.00
36748;BME280;22716;51.556;5.080;2023-11-21T07:15:29;100720.75;;;8.57;100.00
36748;BME280;22716;51.556;5.080;2023-11-21T07:17:58;100710.34;;;8.51;100.00
36748;BME280;22716;51.556;5.080;2023-11-21T07:20:28;100726.00;;;8.57;100.00
36748;BME280;22716;51.556;5.080;2023-11-21T07:22:56;100725.09;;;8.58;100.00
36748;BME280;22716;51.556;5.080;2023-11-21T07:25:25;100730.34;;;8.56;100.00
36748;BME280;22716;51.556;5.080;2023-11-21T07:27:54;100743.38;;;8.59;100.00
36748;BME280;22716;51.556;5.080;2023-11-21T07:30:23;100734.66;;;8.62;100.00
36748;BME280;22716;51.556;5.080;2023-11-21T07:32:55;100732.09;;;8.53;100.00
36748;BME280;22716;51.556;5.080;2023-11-21T07:35:24;100752.94;;;8.62;100.00
36748;BME280;22716;51.556;5.080;2023-11-21T07:37:52;100752.06;;;8.61;100.00
36748;BME280;22716;51.556;5.080;2023-11-21T07:40:21;100752.94;;;8.65;100.00
36748;BME280;22716;51.556;5.080;2023-11-21T07:42:49;100759.88;;;8.69;100.00
36748;BME280;22716;51.556;5.080;2023-11-21T07:45:18;100761.59;;;8.74;100.00
36748;BME280;22716;51.556;5.080;2023-11-21T07:47:47;100765.09;;;8.73;100.00
36748;BME280;22716;51.556;5.080;2023-11-21T07:50:19;100766.78;;;8.79;100.00
36748;BME280;22716;51.556;5.080;2023-11-21T07:52:48;100762.44;;;8.82;100.00
36748;BME280;22716;51.556;5.080;2023-11-21T07:55:17;100752.03;;;8.73;100.00
36748;BME280;22716;51.556;5.080;2023-11-21T07:57:47;100769.38;;;8.88;100.00
36748;BME280;22716;51.556;5.080;2023-11-21T08:00:16;100773.72;;;8.89;100.00
36748;BME280;22716;51.556;5.080;2023-11-21T08:02:46;100771.13;;;8.86;100.00
36748;BME280;22716;51.556;5.080;2023-11-21T08:05:15;100787.66;;;8.91;100.00
36748;BME280;22716;51.556;5.080;2023-11-21T08:07:46;100772.00;;;8.85;100.00
36748;BME280;22716;51.556;5.080;2023-11-21T08:10:15;100778.03;;;8.93;100.00
36748;BME280;22716;51.556;5.080;2023-11-21T08:12:43;100797.19;;;8.99;100.00
36748;BME280;22716;51.556;5.080;2023-11-21T08:15:14;100801.53;;;8.99;100.00
36748;BME280;22716;51.556;5.080;2023-11-21T08:17:42;100805.88;;;9.01;100.00
36748;BME280;22716;51.556;5.080;2023-11-21T08:20:12;100801.53;;;9.02;100.00
36748;BME280;22716;51.556;5.080;2023-11-21T08:22:41;100805.03;;;9.04;100.00
36748;BME280;22716;51.556;5.080;2023-11-21T08:25:13;100811.09;;;9.09;100.00
36748;BME280;22716;51.556;5.080;2023-11-21T08:27:44;100814.56;;;9.10;100.00
36748;BME280;22716;51.556;5.080;2023-11-21T08:30:13;100815.44;;;9.12;100.00
36748;BME280;22716;51.556;5.080;2023-11-21T08:32:42;100815.41;;;9.13;100.00
36748;BME280;22716;51.556;5.080;2023-11-21T08:35:12;100818.88;;;9.17;100.00
36748;BME280;22716;51.556;5.080;2023-11-21T08:37:41;100831.91;;;9.23;100.00
36748;BME280;22716;51.556;5.080;2023-11-21T08:40:13;100836.28;;;9.22;100.00
36748;BME280;22716;51.556;5.080;2023-11-21T08:42:42;100837.13;;;9.26;100.00
36748;BME280;22716;51.556;5.080;2023-11-21T08:45:11;100846.72;;;9.30;100.00
36748;BME280;22716;51.556;5.080;2023-11-21T08:47:40;100843.19;;;9.32;100.00
36748;BME280;22716;51.556;5.080;2023-11-21T08:50:09;100843.19;;;9.35;100.00
36748;BME280;22716;51.556;5.080;2023-11-21T08:52:39;100835.31;;;9.38;100.00
36748;BME280;22716;51.556;5.080;2023-11-21T08:55:08;100835.31;;;9.38;100.00
36748;BME280;22716;51.556;5.080;2023-11-21T08:57:44;100837.91;;;9.43;100.00
36748;BME280;22716;51.556;5.080;2023-11-21T09:00:13;100838.78;;;9.43;100.00
36748;BME280;22716;51.556;5.080;2023-11-21T09:02:43;100852.72;;;9.44;100.00
36748;BME280;22716;51.556;5.080;2023-11-21T09:05:13;100850.06;;;9.48;100.00
36748;BME280;22716;51.556;5.080;2023-11-21T09:07:42;100850.94;;;9.50;100.00
36748;BME280;22716;51.556;5.080;2023-11-21T09:10:13;100853.53;;;9.56;100.00
36748;BME280;22716;51.556;5.080;2023-11-21T09:12:44;100857.84;;;9.62;100.00
36748;BME280;22716;51.556;5.080;2023-11-21T09:15:13;100858.69;;;9.64;100.00
36748;BME280;22716;51.556;5.080;2023-11-21T09:17:42;100865.66;;;9.67;100.00
36748;BME280;22716;51.556;5.080;2023-11-21T09:20:11;100863.03;;;9.71;100.00
36748;BME280;22716;51.556;5.080;2023-11-21T09:22:40;100869.09;;;9.75;100.00
36748;BME280;22716;51.556;5.080;2023-11-21T09:25:10;100872.59;;;9.74;100.00
36748;BME280;22716;51.556;5.080;2023-11-21T09:27:38;100867.31;;;9.80;100.00
36748;BME280;22716;51.556;5.080;2023-11-21T09:30:11;100879.47;;;9.87;100.00
36748;BME280;22716;51.556;5.080;2023-11-21T09:32:40;100885.59;;;9.89;100.00
36748;BME280;22716;51.556;5.080;2023-11-21T09:35:11;100886.44;;;9.88;100.00
36748;BME280;22716;51.556;5.080;2023-11-21T09:37:40;100887.28;;;9.93;100.00
36748;BME280;22716;51.556;5.080;2023-11-21T09:40:11;100887.25;;;9.99;100.00
36748;BME280;22716;51.556;5.080;2023-11-21T09:42:49;100894.25;;;9.97;100.00
36748;BME280;22716;51.556;5.080;2023-11-21T09:45:25;100897.75;;;9.97;100.00
36748;BME280;22716;51.556;5.080;2023-11-21T09:47:55;100895.13;;;9.96;100.00
36748;BME280;22716;51.556;5.080;2023-11-21T09:50:24;100902.94;;;9.99;100.00
36748;BME280;22716;51.556;5.080;2023-11-21T09:52:57;100904.66;;;10.06;100.00
36748;BME280;22716;51.556;5.080;2023-11-21T09:55:27;100915.09;;;10.13;100.00
36748;BME280;22716;51.556;5.080;2023-11-21T09:58:03;100917.69;;;10.17;100.00
36748;BME280;22716;51.556;5.080;2023-11-21T10:00:35;100911.56;;;10.19;100.00
36748;BME280;22716;51.556;5.080;2023-11-21T10:03:07;100910.69;;;10.20;100.00
36748;BME280;22716;51.556;5.080;2023-11-21T10:05:35;100897.59;;;10.19;100.00
36748;BME280;22716;51.556;5.080;2023-11-21T10:08:07;100874.13;;;10.03;100.00
36748;BME280;22716;51.556;5.080;2023-11-21T10:10:37;100917.59;;;10.29;100.00
36748;BME280;22716;51.556;5.080;2023-11-21T10:13:08;100914.06;;;10.31;100.00
36748;BME280;22716;51.556;5.080;2023-11-21T10:15:49;100931.47;;;10.37;100.00
36748;BME280;22716;51.556;5.080;2023-11-21T10:18:18;100938.44;;;10.39;100.00
36748;BME280;22716;51.556;5.080;2023-11-21T10:20:49;100942.81;;;10.42;100.00
36748;BME280;22716;51.556;5.080;2023-11-21T10:23:20;100940.22;;;10.37;100.00
36748;BME280;22716;51.556;5.080;2023-11-21T10:25:49;100942.78;;;10.43;100.00
36748;BME280;22716;51.556;5.080;2023-11-21T10:28:18;100955.88;;;10.45;100.00
36748;BME280;22716;51.556;5.080;2023-11-21T10:30:50;100953.28;;;10.40;100.00
36748;BME280;22716;51.556;5.080;2023-11-21T10:33:27;100964.66;;;10.38;100.00
36748;BME280;22716;51.556;5.080;2023-11-21T10:35:55;100968.16;;;10.38;100.00
36748;BME280;22716;51.556;5.080;2023-11-21T10:38:26;100965.50;;;10.43;100.00
36748;BME280;22716;51.556;5.080;2023-11-21T10:40:56;100965.44;;;10.50;100.00
36748;BME280;22716;51.556;5.080;2023-11-21T10:43:25;100972.44;;;10.50;100.00
36748;BME280;22716;51.556;5.080;2023-11-21T10:45:59;100968.06;;;10.50;100.00
36748;BME280;22716;51.556;5.080;2023-11-21T10:48:28;100977.66;;;10.50;100.00
36748;BME280;22716;51.556;5.080;2023-11-21T10:50:57;100981.16;;;10.49;100.00
36748;BME280;22716;51.556;5.080;2023-11-21T10:53:28;100970.69;;;10.49;100.00
36748;BME280;22716;51.556;5.080;2023-11-21T10:56:02;100955.88;;;10.48;100.00
36748;BME280;22716;51.556;5.080;2023-11-21T10:58:35;100963.63;;;10.57;100.00
36748;BME280;22716;51.556;5.080;2023-11-21T11:01:09;100962.72;;;10.62;100.00
36748;BME280;22716;51.556;5.080;2023-11-21T11:03:41;100967.09;;;10.62;100.00
36748;BME280;22716;51.556;5.080;2023-11-21T11:06:12;100967.06;;;10.65;100.00
36748;BME280;22716;51.556;5.080;2023-11-21T11:08:42;100968.75;;;10.71;100.00
36748;BME280;22716;51.556;5.080;2023-11-21T11:11:11;100979.16;;;10.78;100.00
36748;BME280;22716;51.556;5.080;2023-11-21T11:13:43;100975.66;;;10.79;100.00
36748;BME280;22716;51.556;5.080;2023-11-21T11:16:16;100988.75;;;10.81;100.00
36748;BME280;22716;51.556;5.080;2023-11-21T11:18:45;100986.13;;;10.82;100.00
36748;BME280;22716;51.556;5.080;2023-11-21T11:21:26;100990.47;;;10.85;100.00
36748;BME280;22716;51.556;5.080;2023-11-21T11:24:11;100997.44;;;10.87;100.00
36748;BME280;22716;51.556;5.080;2023-11-21T11:26:47;101001.75;;;10.94;100.00
36748;BME280;22716;51.556;5.080;2023-11-21T11:29:28;101006.06;;;11.00;100.00
36748;BME280;22716;51.556;5.080;2023-11-21T11:32:12;101011.28;;;11.00;100.00
36748;BME280;22716;51.556;5.080;2023-11-21T11:34:47;101016.59;;;10.92;100.00
36748;BME280;22716;51.556;5.080;2023-11-21T11:37:19;101013.97;;;10.92;100.00
36748;BME280;22716;51.556;5.080;2023-11-21T11:39:49;101008.72;;;10.94;100.00
36748;BME280;22716;51.556;5.080;2023-11-21T11:42:22;101009.59;;;10.93;100.00
36748;BME280;22716;51.556;5.080;2023-11-21T11:44:51;101008.72;;;10.92;100.00
36748;BME280;22716;51.556;5.080;2023-11-21T11:47:23;101014.00;;;10.91;100.00
36748;BME280;22716;51.556;5.080;2023-11-21T11:49:57;101022.75;;;10.91;100.00
36748;BME280;22716;51.556;5.080;2023-11-21T11:52:38;101015.75;;;10.92;100.00
36748;BME280;22716;51.556;5.080;2023-11-21T11:55:10;101016.63;;;10.91;100.00
36748;BME280;22716;51.556;5.080;2023-11-21T11:57:40;101024.47;;;10.92;100.00
36748;BME280;22716;51.556;5.080;2023-11-21T12:00:10;101032.28;;;10.95;100.00
36748;BME280;22716;51.556;5.080;2023-11-21T12:02:46;101034.97;;;10.91;100.00
36748;BME280;22716;51.556;5.080;2023-11-21T12:05:17;101039.41;;;10.86;100.00
36748;BME280;22716;51.556;5.080;2023-11-21T12:07:48;101044.63;;;10.89;100.00
36748;BME280;22716;51.556;5.080;2023-11-21T12:10:20;101045.44;;;10.89;100.00
36748;BME280;22716;51.556;5.080;2023-11-21T12:12:51;101042.00;;;10.84;100.00
36748;BME280;22716;51.556;5.080;2023-11-21T12:15:21;101052.47;;;10.87;100.00
36748;BME280;22716;51.556;5.080;2023-11-21T12:17:53;101048.09;;;10.86;100.00
36748;BME280;22716;51.556;5.080;2023-11-21T12:20:23;101048.94;;;10.90;100.00
36748;BME280;22716;51.556;5.080;2023-11-21T12:22:53;101044.63;;;10.84;100.00
36748;BME280;22716;51.556;5.080;2023-11-21T12:25:23;101046.34;;;10.87;100.00
36748;BME280;22716;51.556;5.080;2023-11-21T12:27:55;101060.34;;;10.89;100.00
36748;BME280;22716;51.556;5.080;2023-11-21T12:30:25;101063.00;;;10.86;100.00
36748;BME280;22716;51.556;5.080;2023-11-21T12:33:00;101059.50;;;10.81;100.00
36748;BME280;22716;51.556;5.080;2023-11-21T12:35:32;101068.19;;;10.87;100.00
36748;BME280;22716;51.556;5.080;2023-11-21T12:38:03;101071.69;;;10.88;100.00
36748;BME280;22716;51.556;5.080;2023-11-21T12:40:31;101059.47;;;10.84;100.00
36748;BME280;22716;51.556;5.080;2023-11-21T12:43:00;101069.06;;;10.88;100.00
36748;BME280;22716;51.556;5.080;2023-11-21T12:45:30;101072.59;;;10.85;100.00
36748;BME280;22716;51.556;5.080;2023-11-21T12:48:04;101085.66;;;10.90;100.00
36748;BME280;22716;51.556;5.080;2023-11-21T12:50:34;101083.94;;;10.89;100.00
36748;BME280;22716;51.556;5.080;2023-11-21T12:53:05;101079.59;;;10.83;100.00
36748;BME280;22716;51.556;5.080;2023-11-21T12:55:34;101089.25;;;10.80;100.00
36748;BME280;22716;51.556;5.080;2023-11-21T12:58:07;101083.19;;;10.68;100.00
36748;BME280;22716;51.556;5.080;2023-11-21T13:00:40;101079.72;;;10.68;100.00
36748;BME280;22716;51.556;5.080;2023-11-21T13:03:13;101084.94;;;10.66;100.00